createdAt,value
2023-04-03T00:00:50.329Z,3.13
2023-04-03T00:03:18.400Z,2.94
2023-04-03T00:05:45.338Z,3.06
2023-04-03T00:08:11.974Z,3.00
2023-04-03T00:10:39.312Z,2.81
2023-04-03T00:13:07.670Z,2.94
2023-04-03T00:15:35.999Z,2.88
2023-04-03T00:18:03.743Z,2.81
2023-04-03T00:20:30.416Z,2.94
2023-04-03T00:22:57.379Z,3.00
2023-04-03T00:25:24.430Z,2.81
2023-04-03T00:27:51.513Z,2.81
2023-04-03T00:30:21.175Z,2.63
2023-04-03T00:32:51.333Z,2.63
2023-04-03T00:35:18.998Z,2.63
2023-04-03T00:37:46.671Z,2.69
2023-04-03T00:40:15.999Z,2.75
2023-04-03T00:42:44.135Z,2.75
2023-04-03T00:45:29.637Z,2.88
2023-04-03T00:47:57.878Z,2.69
2023-04-03T00:50:24.687Z,2.69
2023-04-03T00:52:52.292Z,2.50
2023-04-03T00:55:19.293Z,2.50
2023-04-03T00:57:47.676Z,2.56
2023-04-03T01:00:19.752Z,2.56
2023-04-03T01:02:46.420Z,2.56
2023-04-03T01:05:17.084Z,2.50
2023-04-03T01:07:45.507Z,2.50
2023-04-03T01:10:16.532Z,2.31
2023-04-03T01:12:46.762Z,2.31
2023-04-03T01:15:31.231Z,2.44
2023-04-03T01:17:59.361Z,2.31
2023-04-03T01:20:32.097Z,2.13
2023-04-03T01:22:58.590Z,2.19
2023-04-03T01:25:25.703Z,2.38
2023-04-03T01:27:52.288Z,2.25
2023-04-03T01:30:22.338Z,2.13
2023-04-03T01:32:48.951Z,2.06
2023-04-03T01:35:15.890Z,1.94
2023-04-03T01:37:42.460Z,1.88
2023-04-03T01:40:09.720Z,1.88
2023-04-03T01:42:36.298Z,1.88
2023-04-03T01:45:03.334Z,1.88
2023-04-03T01:47:30.056Z,1.81
2023-04-03T01:49:56.661Z,1.75
2023-04-03T01:52:23.278Z,1.88
2023-04-03T01:54:49.831Z,1.94
2023-04-03T01:57:17.130Z,1.94
2023-04-03T01:59:43.755Z,1.81
2023-04-03T02:02:10.510Z,1.81
2023-04-03T02:04:37.103Z,1.75
2023-04-03T02:07:03.745Z,1.81
2023-04-03T02:09:30.565Z,1.81
2023-04-03T02:11:57.136Z,1.63
2023-04-03T02:14:24.605Z,1.56
2023-04-03T02:16:51.543Z,1.56
2023-04-03T02:19:18.138Z,1.56
2023-04-03T02:21:44.796Z,1.56
2023-04-03T02:24:11.444Z,1.50
2023-04-03T02:26:38.228Z,1.44
2023-04-03T02:29:04.803Z,1.38
2023-04-03T02:31:31.550Z,1.25
2023-04-03T02:33:58.210Z,1.19
2023-04-03T02:36:24.797Z,1.13
2023-04-03T02:38:51.360Z,1.06
2023-04-03T02:41:17.976Z,1.00
2023-04-03T02:43:45.179Z,0.88
2023-04-03T02:46:11.790Z,0.88
2023-04-03T02:48:38.413Z,0.81
2023-04-03T02:51:05.314Z,0.75
2023-04-03T02:53:31.955Z,0.63
2023-04-03T02:55:58.549Z,0.56
2023-04-03T02:58:25.270Z,0.56
2023-04-03T03:00:51.892Z,0.63
2023-04-03T03:03:18.485Z,0.44
2023-04-03T03:05:45.048Z,0.31
2023-04-03T03:08:11.578Z,0.25
2023-04-03T03:10:38.633Z,0.31
2023-04-03T03:13:05.903Z,0.38
2023-04-03T03:15:32.679Z,0.25
2023-04-03T03:17:59.228Z,0.19
2023-04-03T03:20:25.824Z,0.25
2023-04-03T03:22:52.476Z,0.13
2023-04-03T03:25:19.015Z,0.13
2023-04-03T03:27:46.756Z,0.19
2023-04-03T03:30:13.549Z,0.06
2023-04-03T03:32:40.336Z,0.13
2023-04-03T03:35:07.181Z,0.13
2023-04-03T03:37:33.764Z,0.06
2023-04-03T03:40:00.324Z,0.06
2023-04-03T03:42:26.979Z,0.06
2023-04-03T03:44:53.601Z,0.06
2023-04-03T03:47:20.308Z,0.06
2023-04-03T03:49:46.887Z,0.00
2023-04-03T03:52:13.506Z,0.00
2023-04-03T03:54:40.390Z,0.06
2023-04-03T03:57:07.003Z,0.00
2023-04-03T03:59:33.588Z,0.00
2023-04-03T04:02:00.237Z,0.06
2023-04-03T04:04:26.849Z,0.06
2023-04-03T04:06:53.421Z,-0.06
2023-04-03T04:09:20.181Z,-0.06
2023-04-03T04:11:46.796Z,-0.13
2023-04-03T04:14:14.395Z,-0.13
2023-04-03T04:16:41.068Z,-0.25
2023-04-03T04:19:08.844Z,-0.25
2023-04-03T04:21:36.236Z,-0.25
2023-04-03T04:24:02.883Z,-0.25
2023-04-03T04:26:29.570Z,-0.38
2023-04-03T04:28:56.337Z,-0.38
2023-04-03T04:31:23.099Z,-0.31
2023-04-03T04:33:49.719Z,-0.38
2023-04-03T04:36:16.401Z,-0.38
2023-04-03T04:38:43.257Z,-0.38
2023-04-03T04:41:09.831Z,-0.44
2023-04-03T04:43:37.018Z,-0.38
2023-04-03T04:46:09.139Z,-0.44
2023-04-03T04:48:36.571Z,-0.38
2023-04-03T04:51:03.468Z,-0.31
2023-04-03T04:53:30.165Z,-0.38
2023-04-03T04:55:56.818Z,-0.38
2023-04-03T04:58:23.494Z,-0.50
2023-04-03T05:00:50.114Z,-0.56
2023-04-03T05:03:16.748Z,-0.56
2023-04-03T05:05:43.421Z,-0.50
2023-04-03T05:08:09.988Z,-0.50
2023-04-03T05:10:36.618Z,-0.44
2023-04-03T05:13:03.212Z,-0.38
2023-04-03T05:15:29.812Z,-0.06
2023-04-03T05:17:56.417Z,0.00
2023-04-03T05:20:23.038Z,0.13
2023-04-03T05:22:49.662Z,0.19
2023-04-03T05:25:16.376Z,0.25
2023-04-03T05:27:43.003Z,0.19
2023-04-03T05:30:10.924Z,0.31
2023-04-03T05:32:37.580Z,0.38
2023-04-03T05:35:05.328Z,0.44
2023-04-03T05:37:32.066Z,0.69
2023-04-03T05:39:58.723Z,0.75
2023-04-03T05:42:25.373Z,0.94
2023-04-03T05:44:51.934Z,0.94
2023-04-03T05:47:19.916Z,1.00
2023-04-03T05:49:46.646Z,1.00
2023-04-03T05:52:27.083Z,1.00
2023-04-03T05:54:53.991Z,1.13
2023-04-03T05:57:20.852Z,1.19
2023-04-03T05:59:47.876Z,1.19
2023-04-03T06:02:17.945Z,1.31
2023-04-03T06:04:44.940Z,1.44
2023-04-03T06:07:14.738Z,1.44
2023-04-03T06:09:41.587Z,1.44
2023-04-03T06:12:08.303Z,1.50
2023-04-03T06:14:35.496Z,1.63
2023-04-03T06:17:02.627Z,1.63
2023-04-03T06:19:29.382Z,1.69
2023-04-03T06:21:56.050Z,1.75
2023-04-03T06:24:24.949Z,1.81
2023-04-03T06:26:53.357Z,1.88
2023-04-03T06:29:21.461Z,1.94
2023-04-03T06:31:48.446Z,1.94
2023-04-03T06:34:16.392Z,2.00
2023-04-03T06:36:44.132Z,2.00
2023-04-03T06:39:16.964Z,2.00
2023-04-03T06:41:44.004Z,2.06
2023-04-03T06:44:12.178Z,2.19
2023-04-03T06:46:39.851Z,2.25
2023-04-03T06:49:08.735Z,2.25
2023-04-03T06:51:36.619Z,2.31
2023-04-03T06:54:06.698Z,2.31
2023-04-03T06:56:33.989Z,2.38
2023-04-03T06:59:00.711Z,2.50
2023-04-03T07:01:29.388Z,2.56
2023-04-03T07:03:57.033Z,2.50
2023-04-03T07:06:23.626Z,2.44
2023-04-03T07:08:50.318Z,2.44
2023-04-03T07:11:17.965Z,2.63
2023-04-03T07:13:45.852Z,2.75
2023-04-03T07:16:12.599Z,2.69
2023-04-03T07:18:39.648Z,2.75
2023-04-03T07:21:06.405Z,2.88
2023-04-03T07:23:33.409Z,2.88
2023-04-03T07:26:00.326Z,3.00
2023-04-03T07:28:27.073Z,3.19
2023-04-03T07:31:02.310Z,3.19
2023-04-03T07:33:28.969Z,3.19
2023-04-03T07:35:55.785Z,3.19
2023-04-03T07:38:22.682Z,3.38
2023-04-03T07:40:50.870Z,3.31
2023-04-03T07:43:18.639Z,3.25
2023-04-03T07:45:46.123Z,3.44
2023-04-03T07:48:14.065Z,3.56
2023-04-03T07:50:44.413Z,3.69
2023-04-03T07:53:11.851Z,3.63
2023-04-03T07:55:43.926Z,3.69
2023-04-03T07:58:16.620Z,3.88
2023-04-03T08:00:43.521Z,4.00
2023-04-03T08:03:12.928Z,4.00
2023-04-03T08:05:41.632Z,4.06
2023-04-03T08:08:09.816Z,4.06
2023-04-03T08:10:36.497Z,4.19
2023-04-03T08:13:04.685Z,4.44
2023-04-03T08:15:31.732Z,4.56
2023-04-03T08:17:59.496Z,4.31
2023-04-03T08:20:26.677Z,4.31
2023-04-03T08:22:53.537Z,4.50
2023-04-03T08:25:20.384Z,4.38
2023-04-03T08:27:47.011Z,4.50
2023-04-03T08:30:14.308Z,4.88
2023-04-03T08:32:42.983Z,4.94
2023-04-03T08:35:10.046Z,4.88
2023-04-03T08:37:37.617Z,5.19
2023-04-03T08:40:09.510Z,5.25
2023-04-03T08:42:38.038Z,5.38
2023-04-03T08:45:14.759Z,5.63
2023-04-03T08:47:51.437Z,5.44
2023-04-03T08:50:22.924Z,5.88
2023-04-03T08:52:53.637Z,6.19
2023-04-03T08:55:41.114Z,6.25
2023-04-03T08:58:17.536Z,6.25
2023-04-03T09:01:06.718Z,5.81
2023-04-03T09:03:38.457Z,6.19
2023-04-03T09:06:16.028Z,6.38
2023-04-03T09:09:17.848Z,6.06
2023-04-03T09:12:13.028Z,6.31
2023-04-03T09:14:57.559Z,6.50
2023-04-03T09:17:33.205Z,6.63
2023-04-03T09:20:30.352Z,6.56
2023-04-03T09:22:58.640Z,6.19
2023-04-03T09:25:34.349Z,6.56
2023-04-03T09:28:03.424Z,6.38
2023-04-03T09:30:31.083Z,6.88
2023-04-03T09:32:58.730Z,6.75
2023-04-03T09:35:47.277Z,7.00
2023-04-03T09:38:15.383Z,6.81
2023-04-03T09:40:45.134Z,6.56
2023-04-03T09:43:17.888Z,6.81
2023-04-03T09:45:46.672Z,6.69
2023-04-03T09:48:18.845Z,6.75
2023-04-03T09:50:51.581Z,6.81
2023-04-03T09:53:31.024Z,7.19
2023-04-03T09:55:58.029Z,6.94
2023-04-03T09:58:49.611Z,7.19
2023-04-03T10:01:30.839Z,7.25
2023-04-03T10:04:14.565Z,7.25
2023-04-03T10:06:51.979Z,7.63
2023-04-03T10:09:24.626Z,7.63
2023-04-03T10:12:10.861Z,7.31
2023-04-03T10:14:59.164Z,7.63
2023-04-03T10:17:25.787Z,7.88
2023-04-03T10:20:35.982Z,8.13
2023-04-03T10:23:22.260Z,8.13
2023-04-03T10:26:06.979Z,7.75
2023-04-03T10:28:36.536Z,7.88
2023-04-03T10:31:41.616Z,8.00
2023-04-03T10:34:20.201Z,8.00
2023-04-03T10:37:09.672Z,7.69
2023-04-03T10:40:11.994Z,8.06
2023-04-03T10:42:45.887Z,8.25
2023-04-03T10:45:26.922Z,8.31
2023-04-03T10:47:56.614Z,8.38
2023-04-03T10:50:48.122Z,8.75
2023-04-03T10:53:33.487Z,8.94
2023-04-03T10:56:22.979Z,8.94
2023-04-03T10:58:57.029Z,9.38
2023-04-03T11:01:33.182Z,9.00
2023-04-03T11:04:04.327Z,9.38
2023-04-03T11:06:41.084Z,9.00
2023-04-03T11:09:40.568Z,8.88
2023-04-03T11:12:22.727Z,8.88
2023-04-03T11:14:52.745Z,8.75
2023-04-03T11:17:19.253Z,9.00
2023-04-03T11:20:34.220Z,9.31
2023-04-03T11:23:25.483Z,9.50
2023-04-03T11:25:58.218Z,8.81
2023-04-03T11:28:25.064Z,9.00
2023-04-03T11:31:21.125Z,9.13
2023-04-03T11:34:23.379Z,9.25
2023-04-03T11:36:56.943Z,9.25
2023-04-03T11:39:29.553Z,8.88
2023-04-03T11:42:06.645Z,9.06
2023-04-03T11:44:39.594Z,9.44
2023-04-03T11:47:09.809Z,9.19
2023-04-03T11:50:01.947Z,9.19
2023-04-03T11:52:43.784Z,9.38
2023-04-03T11:55:22.979Z,9.31
2023-04-03T11:57:58.649Z,8.94
2023-04-03T12:00:56.011Z,9.50
2023-04-03T12:03:32.151Z,9.63
2023-04-03T12:06:18.733Z,9.25
2023-04-03T12:08:47.043Z,9.44
2023-04-03T12:11:13.610Z,9.38
2023-04-03T12:13:58.266Z,9.69
2023-04-03T12:16:40.269Z,9.50
2023-04-03T12:19:15.940Z,9.25
2023-04-03T12:21:53.006Z,9.94
2023-04-03T12:24:24.879Z,9.88
2023-04-03T12:27:00.387Z,9.56
2023-04-03T12:29:36.394Z,9.81
2023-04-03T12:32:40.738Z,9.56
2023-04-03T12:35:35.398Z,9.44
2023-04-03T12:38:18.401Z,9.44
2023-04-03T12:41:16.350Z,9.56
2023-04-03T12:44:01.607Z,9.88
2023-04-03T12:46:40.808Z,9.56
2023-04-03T12:49:31.142Z,9.88
2023-04-03T12:51:58.270Z,9.50
2023-04-03T12:54:37.918Z,9.63
2023-04-03T12:57:11.610Z,10.06
2023-04-03T12:59:39.314Z,9.88
2023-04-03T13:02:29.864Z,9.69
2023-04-03T13:05:07.692Z,9.75
2023-04-03T13:07:41.809Z,9.81
2023-04-03T13:10:08.756Z,10.00
2023-04-03T13:12:51.962Z,9.75
2023-04-03T13:15:20.609Z,9.81
2023-04-03T13:17:49.505Z,9.75
2023-04-03T13:20:26.086Z,9.50
2023-04-03T13:23:09.796Z,9.50
2023-04-03T13:25:42.991Z,9.44
2023-04-03T13:28:15.664Z,9.69
2023-04-03T13:31:02.827Z,9.81
2023-04-03T13:33:34.532Z,10.00
2023-04-03T13:36:06.274Z,9.69
2023-04-03T13:38:35.057Z,9.69
2023-04-03T13:41:23.979Z,9.63
2023-04-03T13:43:53.632Z,10.00
2023-04-03T13:46:29.194Z,10.31
2023-04-03T13:48:58.266Z,9.75
2023-04-03T13:51:30.675Z,9.63
2023-04-03T13:54:01.411Z,9.50
2023-04-03T13:56:39.776Z,9.75
2023-04-03T13:59:34.121Z,10.00
2023-04-03T14:02:03.441Z,10.25
2023-04-03T14:04:45.674Z,10.19
2023-04-03T14:07:17.132Z,9.94
2023-04-03T14:09:43.801Z,10.00
2023-04-03T14:12:30.683Z,10.31
2023-04-03T14:14:59.323Z,10.19
2023-04-03T14:17:27.534Z,10.19
2023-04-03T14:19:57.353Z,9.88
2023-04-03T14:22:35.763Z,9.81
2023-04-03T14:25:02.672Z,9.69
2023-04-03T14:27:35.237Z,10.06
2023-04-03T14:30:04.522Z,9.94
2023-04-03T14:32:31.364Z,10.06
2023-04-03T14:34:59.277Z,10.06
2023-04-03T14:37:30.246Z,10.13
2023-04-03T14:39:59.870Z,10.44
2023-04-03T14:42:31.971Z,10.63
2023-04-03T14:45:00.832Z,10.81
2023-04-03T14:47:31.777Z,10.44
2023-04-03T14:50:04.462Z,10.19
2023-04-03T14:52:34.643Z,10.56
2023-04-03T14:55:03.252Z,10.38
2023-04-03T14:57:31.483Z,10.13
2023-04-03T14:59:58.574Z,9.94
2023-04-03T15:02:27.122Z,10.06
2023-04-03T15:04:56.154Z,10.06
2023-04-03T15:07:24.952Z,9.81
2023-04-03T15:09:52.029Z,9.94
2023-04-03T15:12:18.990Z,9.94
2023-04-03T15:14:51.871Z,10.06
2023-04-03T15:17:23.520Z,10.00
2023-04-03T15:19:50.428Z,9.94
2023-04-03T15:22:20.886Z,10.06
2023-04-03T15:24:47.584Z,9.81
2023-04-03T15:27:16.244Z,9.75
2023-04-03T15:29:44.025Z,9.94
2023-04-03T15:32:11.171Z,9.63
2023-04-03T15:34:38.467Z,9.50
2023-04-03T15:37:05.279Z,9.63
2023-04-03T15:39:32.570Z,9.56
2023-04-03T15:42:06.941Z,9.44
2023-04-03T15:44:35.601Z,9.50
2023-04-03T15:47:03.857Z,9.63
2023-04-03T15:49:33.847Z,9.38
2023-04-03T15:52:01.246Z,9.38
2023-04-03T15:54:30.400Z,9.50
2023-04-03T15:56:57.225Z,9.50
2023-04-03T15:59:23.896Z,9.50
2023-04-03T16:01:53.321Z,9.38
2023-04-03T16:04:21.890Z,9.44
2023-04-03T16:06:49.413Z,9.50
2023-04-03T16:09:16.289Z,9.31
2023-04-03T16:11:44.354Z,9.31
2023-04-03T16:14:10.956Z,9.31
2023-04-03T16:16:38.653Z,9.38
2023-04-03T16:19:06.449Z,9.25
2023-04-03T16:21:34.300Z,9.38
2023-04-03T16:24:02.574Z,9.00
2023-04-03T16:26:29.189Z,9.13
2023-04-03T16:28:55.992Z,8.94
2023-04-03T16:31:24.648Z,8.94
2023-04-03T16:33:51.340Z,8.88
2023-04-03T16:36:18.650Z,9.06
2023-04-03T16:38:45.281Z,8.94
2023-04-03T16:41:11.945Z,8.88
2023-04-03T16:43:38.607Z,8.94
2023-04-03T16:46:05.524Z,8.88
2023-04-03T16:48:32.260Z,8.75
2023-04-03T16:50:59.328Z,8.75
2023-04-03T16:53:26.482Z,8.75
2023-04-03T16:55:53.321Z,8.75
2023-04-03T16:58:21.755Z,8.63
2023-04-03T17:00:49.342Z,8.50
2023-04-03T17:03:16.077Z,8.50
2023-04-03T17:05:44.600Z,8.50
2023-04-03T17:08:11.639Z,8.44
2023-04-03T17:10:38.305Z,8.44
2023-04-03T17:13:04.946Z,8.31
2023-04-03T17:15:31.526Z,8.25
2023-04-03T17:17:58.339Z,8.25
2023-04-03T17:20:25.047Z,8.19
2023-04-03T17:22:52.080Z,8.13
2023-04-03T17:25:18.728Z,8.06
2023-04-03T17:27:45.311Z,8.00
2023-04-03T17:30:12.220Z,8.06
2023-04-03T17:32:39.016Z,8.00
2023-04-03T17:35:06.399Z,7.88
2023-04-03T17:37:33.081Z,7.88
2023-04-03T17:39:59.668Z,7.75
2023-04-03T17:42:26.285Z,7.69
2023-04-03T17:44:52.874Z,7.63
2023-04-03T17:47:19.424Z,7.50
2023-04-03T17:49:46.002Z,7.44
2023-04-03T17:52:12.667Z,7.38
2023-04-03T17:54:39.324Z,7.25
2023-04-03T17:57:06.714Z,7.25
2023-04-03T17:59:33.419Z,7.13
2023-04-03T18:02:00.245Z,7.06
2023-04-03T18:04:28.955Z,7.00
2023-04-03T18:06:56.109Z,7.06
2023-04-03T18:09:27.949Z,6.94
2023-04-03T18:11:57.212Z,6.88
2023-04-03T18:14:26.949Z,6.81
2023-04-03T18:16:54.571Z,6.69
2023-04-03T18:19:23.403Z,6.69
2023-04-03T18:21:58.033Z,6.63
2023-04-03T18:24:26.336Z,6.63
2023-04-03T18:27:06.271Z,6.63
2023-04-03T18:29:36.406Z,6.50
2023-04-03T18:32:04.488Z,6.31
2023-04-03T18:34:32.006Z,6.25
2023-04-03T18:36:59.711Z,6.13
2023-04-03T18:39:27.088Z,6.19
2023-04-03T18:41:55.863Z,6.31
2023-04-03T18:44:25.923Z,6.13
2023-04-03T18:46:53.981Z,6.06
2023-04-03T18:49:21.022Z,6.00
2023-04-03T18:51:48.058Z,6.00
2023-04-03T18:54:14.748Z,5.94
2023-04-03T18:56:41.377Z,5.88
2023-04-03T18:59:08.054Z,5.63
2023-04-03T19:01:35.209Z,5.81
2023-04-03T19:04:02.694Z,5.75
2023-04-03T19:06:29.575Z,5.75
2023-04-03T19:08:56.296Z,5.69
2023-04-03T19:11:23.141Z,5.56
2023-04-03T19:14:04.494Z,5.50
2023-04-03T19:16:36.606Z,5.38
2023-04-03T19:19:03.531Z,5.44
2023-04-03T19:21:30.200Z,5.56
2023-04-03T19:23:59.239Z,5.56
2023-04-03T19:26:29.172Z,5.44
2023-04-03T19:28:55.791Z,5.06
2023-04-03T19:31:23.240Z,4.69
2023-04-03T19:33:50.672Z,4.63
2023-04-03T19:36:18.429Z,4.31
2023-04-03T19:38:45.532Z,4.06
2023-04-03T19:41:18.691Z,4.00
2023-04-03T19:43:45.673Z,4.06
2023-04-03T19:46:12.593Z,4.06
2023-04-03T19:48:39.221Z,4.00
2023-04-03T19:51:06.176Z,3.94
2023-04-03T19:53:32.821Z,3.56
2023-04-03T19:55:59.823Z,3.44
2023-04-03T19:58:30.002Z,3.31
2023-04-03T20:00:58.115Z,3.31
2023-04-03T20:03:26.123Z,3.38
2023-04-03T20:05:54.149Z,3.38
2023-04-03T20:08:20.978Z,3.44
2023-04-03T20:10:47.820Z,3.44
2023-04-03T20:13:15.340Z,3.31
2023-04-03T20:15:44.534Z,3.25
2023-04-03T20:18:18.041Z,3.06
2023-04-03T20:20:59.449Z,3.13
2023-04-03T20:23:27.317Z,3.00
2023-04-03T20:26:06.581Z,2.75
2023-04-03T20:28:37.912Z,2.75
2023-04-03T20:31:05.382Z,2.50
2023-04-03T20:33:32.064Z,2.56
2023-04-03T20:35:58.751Z,2.56
2023-04-03T20:38:25.783Z,2.50
2023-04-03T20:40:53.101Z,2.31
2023-04-03T20:43:21.778Z,2.31
2023-04-03T20:45:49.288Z,2.19
2023-04-03T20:48:18.122Z,2.13
2023-04-03T20:50:46.457Z,2.00
2023-04-03T20:53:14.933Z,1.94
2023-04-03T20:55:42.302Z,2.00
2023-04-03T20:58:09.260Z,2.00
2023-04-03T21:00:37.899Z,2.00
2023-04-03T21:03:05.753Z,2.06
2023-04-03T21:05:34.754Z,1.94
2023-04-03T21:08:40.109Z,1.94
2023-04-03T21:11:44.719Z,1.69
2023-04-03T21:14:49.135Z,1.56
2023-04-03T21:17:16.261Z,1.38
2023-04-03T21:19:48.936Z,1.31
2023-04-03T21:22:16.285Z,1.25
2023-04-03T21:24:44.441Z,1.19
2023-04-03T21:27:11.520Z,1.13
2023-04-03T21:29:38.691Z,1.13
2023-04-03T21:32:05.801Z,1.13
2023-04-03T21:34:32.507Z,1.06
2023-04-03T21:37:05.420Z,1.00
2023-04-03T21:39:33.046Z,0.94
2023-04-03T21:42:00.183Z,0.88
2023-04-03T21:44:29.631Z,0.81
2023-04-03T21:46:56.587Z,0.75
2023-04-03T21:49:25.131Z,0.75
2023-04-03T21:51:52.457Z,0.75
2023-04-03T21:54:19.936Z,0.75
2023-04-03T21:56:51.674Z,0.63
2023-04-03T21:59:18.704Z,0.75
2023-04-03T22:01:45.585Z,0.63
2023-04-03T22:04:12.597Z,0.56
2023-04-03T22:06:39.151Z,0.56
2023-04-03T22:09:05.766Z,0.56
2023-04-03T22:11:32.605Z,0.56
2023-04-03T22:13:59.842Z,0.44
2023-04-03T22:16:27.452Z,0.38
2023-04-03T22:18:54.834Z,0.31
2023-04-03T22:21:22.112Z,0.38
2023-04-03T22:23:48.998Z,0.50
2023-04-03T22:26:15.651Z,0.50
2023-04-03T22:28:44.795Z,0.50
2023-04-03T22:31:11.875Z,0.44
2023-04-03T22:33:38.767Z,0.50
2023-04-03T22:36:06.930Z,0.44
2023-04-03T22:38:35.058Z,0.38
2023-04-03T22:41:04.537Z,0.50
2023-04-03T22:43:33.107Z,0.44
2023-04-03T22:46:02.096Z,0.38
2023-04-03T22:48:28.899Z,0.31
2023-04-03T22:50:55.714Z,0.38
2023-04-03T22:53:23.175Z,0.25
2023-04-03T22:55:57.488Z,0.25
2023-04-03T22:58:26.482Z,0.25
2023-04-03T23:00:55.011Z,0.19
2023-04-03T23:03:23.413Z,0.19
2023-04-03T23:05:51.665Z,0.13
2023-04-03T23:08:19.592Z,0.13
2023-04-03T23:10:46.304Z,0.19
2023-04-03T23:13:13.052Z,0.13
2023-04-03T23:15:39.607Z,0.06
2023-04-03T23:18:06.305Z,0.19
2023-04-03T23:20:32.905Z,0.31
2023-04-03T23:22:59.561Z,0.13
2023-04-03T23:25:26.525Z,0.13
2023-04-03T23:27:53.652Z,0.13
2023-04-03T23:30:21.632Z,0.06
2023-04-03T23:32:48.783Z,0.06
2023-04-03T23:35:15.490Z,0.00
2023-04-03T23:37:42.677Z,-0.06
2023-04-03T23:40:10.065Z,-0.06
2023-04-03T23:42:36.724Z,-0.06
2023-04-03T23:45:03.607Z,-0.06
2023-04-03T23:47:30.200Z,0.00
2023-04-03T23:49:57.297Z,0.06
2023-04-03T23:52:23.921Z,0.00
2023-04-03T23:54:50.578Z,0.19
2023-04-03T23:57:17.151Z,0.31
2023-04-03T23:59:43.738Z,0.19
